Airport ICAO


10:10 UTC

1°C

Few clouds


An affordable passengers' Moving Map for your aircraft. Made for the iPad and the iPhone
More information here

EGKK Gatwick


London UNITED KINGDOM   VFR


METAR EGKK 180950Z 08004KT 9999 FEW030 01/M01 Q1017 0h20min

TAF EGKK 180452Z 1806/1912 VRB03KT 9999 FEW035 PROB30 1806/1809 8000 BECMG 1810/1813 17010KT BECMG 1821/1824 BKN012 TEMPO 1822/1912 6000 -RADZ BKN008 PROB30 TEMPO 1822/1906 4000 RADZ BKN004 5h18min





NOTAMS

OPEN